sensor_id;sensor_type;location;lat;lon;timestamp;P1;durP1;ratioP1;P2;durP2;ratioP2
76423;SDS011;65257;52.104;4.268;2024-02-21T00:00:39;41.33;;;7.05;;
76423;SDS011;65257;52.104;4.268;2024-02-21T00:03:06;28.90;;;5.72;;
76423;SDS011;65257;52.104;4.268;2024-02-21T00:05:32;30.08;;;6.18;;
76423;SDS011;65257;52.104;4.268;2024-02-21T00:07:58;34.33;;;5.78;;
76423;SDS011;65257;52.104;4.268;2024-02-21T00:10:24;28.70;;;4.22;;
76423;SDS011;65257;52.104;4.268;2024-02-21T00:12:50;21.83;;;4.22;;
76423;SDS011;65257;52.104;4.268;2024-02-21T00:15:16;20.10;;;3.90;;
76423;SDS011;65257;52.104;4.268;2024-02-21T00:17:43;19.08;;;4.40;;
76423;SDS011;65257;52.104;4.268;2024-02-21T00:20:09;30.00;;;6.03;;
76423;SDS011;65257;52.104;4.268;2024-02-21T00:22:35;41.50;;;6.97;;
76423;SDS011;65257;52.104;4.268;2024-02-21T00:25:01;36.65;;;6.32;;
76423;SDS011;65257;52.104;4.268;2024-02-21T00:27:26;30.55;;;4.97;;
76423;SDS011;65257;52.104;4.268;2024-02-21T00:29:51;24.17;;;4.20;;
76423;SDS011;65257;52.104;4.268;2024-02-21T00:32:17;21.52;;;3.97;;
76423;SDS011;65257;52.104;4.268;2024-02-21T00:34:43;23.85;;;4.50;;
76423;SDS011;65257;52.104;4.268;2024-02-21T00:37:08;24.52;;;5.05;;
76423;SDS011;65257;52.104;4.268;2024-02-21T00:39:37;24.88;;;4.68;;
76423;SDS011;65257;52.104;4.268;2024-02-21T00:42:02;34.58;;;5.47;;
76423;SDS011;65257;52.104;4.268;2024-02-21T00:44:28;29.13;;;4.47;;
76423;SDS011;65257;52.104;4.268;2024-02-21T00:46:53;26.77;;;4.53;;
76423;SDS011;65257;52.104;4.268;2024-02-21T00:49:19;27.75;;;5.13;;
76423;SDS011;65257;52.104;4.268;2024-02-21T00:51:44;25.98;;;4.50;;
76423;SDS011;65257;52.104;4.268;2024-02-21T00:54:10;25.50;;;4.82;;
76423;SDS011;65257;52.104;4.268;2024-02-21T00:56:35;35.63;;;5.07;;
76423;SDS011;65257;52.104;4.268;2024-02-21T00:59:00;35.15;;;5.22;;
76423;SDS011;65257;52.104;4.268;2024-02-21T01:01:26;22.83;;;5.18;;
76423;SDS011;65257;52.104;4.268;2024-02-21T01:03:51;26.70;;;5.05;;
76423;SDS011;65257;52.104;4.268;2024-02-21T01:06:20;28.17;;;4.80;;
76423;SDS011;65257;52.104;4.268;2024-02-21T01:08:46;29.23;;;4.28;;
76423;SDS011;65257;52.104;4.268;2024-02-21T01:11:15;18.73;;;4.63;;
76423;SDS011;65257;52.104;4.268;2024-02-21T01:13:41;25.08;;;4.68;;
76423;SDS011;65257;52.104;4.268;2024-02-21T01:16:07;23.27;;;6.25;;
76423;SDS011;65257;52.104;4.268;2024-02-21T01:18:33;28.67;;;4.90;;
76423;SDS011;65257;52.104;4.268;2024-02-21T01:20:59;31.75;;;4.65;;
76423;SDS011;65257;52.104;4.268;2024-02-21T01:23:24;26.55;;;6.03;;
76423;SDS011;65257;52.104;4.268;2024-02-21T01:25:50;25.95;;;4.53;;
76423;SDS011;65257;52.104;4.268;2024-02-21T01:28:16;21.40;;;4.50;;
76423;SDS011;65257;52.104;4.268;2024-02-21T01:30:41;20.33;;;4.07;;
76423;SDS011;65257;52.104;4.268;2024-02-21T01:33:07;31.65;;;5.20;;
76423;SDS011;65257;52.104;4.268;2024-02-21T01:35:34;29.55;;;7.03;;
76423;SDS011;65257;52.104;4.268;2024-02-21T01:37:59;27.25;;;4.40;;
76423;SDS011;65257;52.104;4.268;2024-02-21T01:40:25;23.38;;;4.70;;
76423;SDS011;65257;52.104;4.268;2024-02-21T01:42:50;25.27;;;5.07;;
76423;SDS011;65257;52.104;4.268;2024-02-21T01:45:18;33.42;;;4.43;;
76423;SDS011;65257;52.104;4.268;2024-02-21T01:47:44;32.35;;;5.13;;
76423;SDS011;65257;52.104;4.268;2024-02-21T01:50:09;21.38;;;4.68;;
76423;SDS011;65257;52.104;4.268;2024-02-21T01:52:36;21.70;;;3.95;;
76423;SDS011;65257;52.104;4.268;2024-02-21T01:55:03;28.58;;;4.50;;
76423;SDS011;65257;52.104;4.268;2024-02-21T01:57:29;19.95;;;4.13;;
76423;SDS011;65257;52.104;4.268;2024-02-21T01:59:55;21.13;;;4.78;;
76423;SDS011;65257;52.104;4.268;2024-02-21T02:02:20;23.83;;;4.78;;
76423;SDS011;65257;52.104;4.268;2024-02-21T02:04:46;21.75;;;4.43;;
76423;SDS011;65257;52.104;4.268;2024-02-21T02:07:12;25.00;;;5.28;;
76423;SDS011;65257;52.104;4.268;2024-02-21T02:09:37;24.23;;;5.82;;
76423;SDS011;65257;52.104;4.268;2024-02-21T02:12:03;29.15;;;4.95;;
76423;SDS011;65257;52.104;4.268;2024-02-21T02:14:29;25.88;;;4.30;;
76423;SDS011;65257;52.104;4.268;2024-02-21T02:16:54;27.00;;;5.55;;
76423;SDS011;65257;52.104;4.268;2024-02-21T02:19:19;26.05;;;5.53;;
76423;SDS011;65257;52.104;4.268;2024-02-21T02:21:53;25.33;;;5.45;;
76423;SDS011;65257;52.104;4.268;2024-02-21T02:24:23;21.60;;;4.68;;
76423;SDS011;65257;52.104;4.268;2024-02-21T02:26:50;24.20;;;5.43;;
76423;SDS011;65257;52.104;4.268;2024-02-21T02:29:16;25.38;;;4.38;;
76423;SDS011;65257;52.104;4.268;2024-02-21T02:31:41;25.23;;;4.25;;
76423;SDS011;65257;52.104;4.268;2024-02-21T02:34:07;28.58;;;4.65;;
76423;SDS011;65257;52.104;4.268;2024-02-21T02:36:32;19.02;;;3.83;;
76423;SDS011;65257;52.104;4.268;2024-02-21T02:38:58;19.55;;;4.07;;
76423;SDS011;65257;52.104;4.268;2024-02-21T02:41:24;39.42;;;6.00;;
76423;SDS011;65257;52.104;4.268;2024-02-21T02:43:49;33.25;;;5.60;;
76423;SDS011;65257;52.104;4.268;2024-02-21T02:46:15;25.08;;;4.65;;
76423;SDS011;65257;52.104;4.268;2024-02-21T02:48:40;27.75;;;5.13;;
76423;SDS011;65257;52.104;4.268;2024-02-21T02:51:06;23.13;;;4.75;;
76423;SDS011;65257;52.104;4.268;2024-02-21T02:53:31;32.50;;;6.97;;
76423;SDS011;65257;52.104;4.268;2024-02-21T02:55:56;26.55;;;7.10;;
76423;SDS011;65257;52.104;4.268;2024-02-21T02:58:22;27.67;;;4.68;;
76423;SDS011;65257;52.104;4.268;2024-02-21T03:00:48;31.33;;;5.57;;
76423;SDS011;65257;52.104;4.268;2024-02-21T03:03:13;29.30;;;6.10;;
76423;SDS011;65257;52.104;4.268;2024-02-21T03:05:38;32.45;;;5.65;;
76423;SDS011;65257;52.104;4.268;2024-02-21T03:08:04;23.90;;;5.28;;
76423;SDS011;65257;52.104;4.268;2024-02-21T03:10:32;25.08;;;4.63;;
76423;SDS011;65257;52.104;4.268;2024-02-21T03:12:58;20.65;;;4.75;;
76423;SDS011;65257;52.104;4.268;2024-02-21T03:15:23;18.20;;;4.53;;
76423;SDS011;65257;52.104;4.268;2024-02-21T03:17:49;23.45;;;4.28;;
76423;SDS011;65257;52.104;4.268;2024-02-21T03:20:15;19.13;;;5.38;;
76423;SDS011;65257;52.104;4.268;2024-02-21T03:22:40;15.43;;;4.13;;
76423;SDS011;65257;52.104;4.268;2024-02-21T03:25:06;17.00;;;4.30;;
76423;SDS011;65257;52.104;4.268;2024-02-21T03:27:32;17.73;;;4.70;;
76423;SDS011;65257;52.104;4.268;2024-02-21T03:29:57;14.88;;;4.75;;
76423;SDS011;65257;52.104;4.268;2024-02-21T03:32:23;21.73;;;5.07;;
76423;SDS011;65257;52.104;4.268;2024-02-21T03:34:49;28.17;;;6.10;;
76423;SDS011;65257;52.104;4.268;2024-02-21T03:37:14;22.55;;;5.45;;
76423;SDS011;65257;52.104;4.268;2024-02-21T03:39:40;20.70;;;6.55;;
76423;SDS011;65257;52.104;4.268;2024-02-21T03:42:05;17.27;;;5.88;;
76423;SDS011;65257;52.104;4.268;2024-02-21T03:44:31;18.75;;;4.85;;
76423;SDS011;65257;52.104;4.268;2024-02-21T03:46:57;16.58;;;5.22;;
76423;SDS011;65257;52.104;4.268;2024-02-21T03:49:23;28.77;;;6.88;;
76423;SDS011;65257;52.104;4.268;2024-02-21T03:51:49;19.90;;;5.50;;
76423;SDS011;65257;52.104;4.268;2024-02-21T03:54:14;11.00;;;4.72;;
76423;SDS011;65257;52.104;4.268;2024-02-21T03:56:40;27.65;;;6.05;;
76423;SDS011;65257;52.104;4.268;2024-02-21T03:59:06;22.45;;;6.10;;
76423;SDS011;65257;52.104;4.268;2024-02-21T04:01:32;20.92;;;6.30;;
76423;SDS011;65257;52.104;4.268;2024-02-21T04:03:58;19.10;;;5.53;;
76423;SDS011;65257;52.104;4.268;2024-02-21T04:06:23;35.35;;;6.05;;
76423;SDS011;65257;52.104;4.268;2024-02-21T04:08:49;16.65;;;6.00;;
76423;SDS011;65257;52.104;4.268;2024-02-21T04:11:14;22.38;;;6.68;;
76423;SDS011;65257;52.104;4.268;2024-02-21T04:13:40;15.80;;;5.95;;
76423;SDS011;65257;52.104;4.268;2024-02-21T04:16:05;19.23;;;6.40;;
76423;SDS011;65257;52.104;4.268;2024-02-21T04:18:31;23.80;;;6.63;;
76423;SDS011;65257;52.104;4.268;2024-02-21T04:20:56;18.13;;;5.97;;
76423;SDS011;65257;52.104;4.268;2024-02-21T04:23:21;17.13;;;6.10;;
76423;SDS011;65257;52.104;4.268;2024-02-21T04:25:47;16.30;;;6.30;;
76423;SDS011;65257;52.104;4.268;2024-02-21T04:28:12;17.85;;;6.55;;
76423;SDS011;65257;52.104;4.268;2024-02-21T04:30:38;21.40;;;6.47;;
76423;SDS011;65257;52.104;4.268;2024-02-21T04:33:03;18.58;;;7.10;;
76423;SDS011;65257;52.104;4.268;2024-02-21T04:35:28;27.50;;;6.43;;
76423;SDS011;65257;52.104;4.268;2024-02-21T04:37:54;14.90;;;5.95;;
76423;SDS011;65257;52.104;4.268;2024-02-21T04:40:20;26.13;;;6.20;;
76423;SDS011;65257;52.104;4.268;2024-02-21T04:42:45;20.05;;;6.85;;
76423;SDS011;65257;52.104;4.268;2024-02-21T04:45:10;13.65;;;5.53;;
76423;SDS011;65257;52.104;4.268;2024-02-21T04:47:36;16.98;;;6.40;;
76423;SDS011;65257;52.104;4.268;2024-02-21T04:50:01;13.77;;;6.45;;
76423;SDS011;65257;52.104;4.268;2024-02-21T04:52:27;18.27;;;6.43;;
76423;SDS011;65257;52.104;4.268;2024-02-21T04:54:52;13.50;;;5.80;;
76423;SDS011;65257;52.104;4.268;2024-02-21T04:57:17;24.30;;;6.65;;
76423;SDS011;65257;52.104;4.268;2024-02-21T04:59:46;19.08;;;6.07;;
76423;SDS011;65257;52.104;4.268;2024-02-21T05:02:15;20.02;;;6.38;;
76423;SDS011;65257;52.104;4.268;2024-02-21T05:04:41;14.23;;;5.97;;
76423;SDS011;65257;52.104;4.268;2024-02-21T05:07:07;18.25;;;6.28;;
76423;SDS011;65257;52.104;4.268;2024-02-21T05:09:33;18.02;;;5.60;;
76423;SDS011;65257;52.104;4.268;2024-02-21T05:11:58;15.68;;;6.15;;
76423;SDS011;65257;52.104;4.268;2024-02-21T05:14:24;17.70;;;5.80;;
76423;SDS011;65257;52.104;4.268;2024-02-21T05:16:51;13.38;;;5.90;;
76423;SDS011;65257;52.104;4.268;2024-02-21T05:19:17;14.68;;;4.90;;
76423;SDS011;65257;52.104;4.268;2024-02-21T05:21:42;16.85;;;5.72;;
76423;SDS011;65257;52.104;4.268;2024-02-21T05:24:08;13.98;;;5.28;;
76423;SDS011;65257;52.104;4.268;2024-02-21T05:26:33;19.30;;;5.40;;
76423;SDS011;65257;52.104;4.268;2024-02-21T05:28:59;14.77;;;6.00;;
76423;SDS011;65257;52.104;4.268;2024-02-21T05:31:24;15.13;;;5.95;;
76423;SDS011;65257;52.104;4.268;2024-02-21T05:33:50;18.02;;;6.22;;
76423;SDS011;65257;52.104;4.268;2024-02-21T05:36:16;13.95;;;5.63;;
76423;SDS011;65257;52.104;4.268;2024-02-21T05:38:41;19.55;;;5.45;;
76423;SDS011;65257;52.104;4.268;2024-02-21T05:41:07;15.48;;;6.35;;
76423;SDS011;65257;52.104;4.268;2024-02-21T05:43:32;12.77;;;6.10;;
76423;SDS011;65257;52.104;4.268;2024-02-21T05:45:58;17.95;;;6.13;;
76423;SDS011;65257;52.104;4.268;2024-02-21T05:48:23;11.63;;;6.30;;
76423;SDS011;65257;52.104;4.268;2024-02-21T05:50:49;17.40;;;6.47;;
76423;SDS011;65257;52.104;4.268;2024-02-21T05:53:14;16.95;;;6.95;;
76423;SDS011;65257;52.104;4.268;2024-02-21T05:55:40;15.25;;;6.88;;
76423;SDS011;65257;52.104;4.268;2024-02-21T05:58:05;17.98;;;6.75;;
76423;SDS011;65257;52.104;4.268;2024-02-21T06:00:31;17.23;;;6.82;;
76423;SDS011;65257;52.104;4.268;2024-02-21T06:02:57;14.60;;;6.28;;
76423;SDS011;65257;52.104;4.268;2024-02-21T06:05:23;14.57;;;6.60;;
76423;SDS011;65257;52.104;4.268;2024-02-21T06:07:48;18.98;;;7.18;;
76423;SDS011;65257;52.104;4.268;2024-02-21T06:10:14;13.70;;;5.90;;
76423;SDS011;65257;52.104;4.268;2024-02-21T06:12:39;17.48;;;6.85;;
76423;SDS011;65257;52.104;4.268;2024-02-21T06:15:05;16.83;;;8.57;;
76423;SDS011;65257;52.104;4.268;2024-02-21T06:17:31;11.95;;;6.57;;
76423;SDS011;65257;52.104;4.268;2024-02-21T06:19:56;14.68;;;6.18;;
76423;SDS011;65257;52.104;4.268;2024-02-21T06:22:22;14.27;;;7.10;;
76423;SDS011;65257;52.104;4.268;2024-02-21T06:24:47;10.75;;;6.50;;
76423;SDS011;65257;52.104;4.268;2024-02-21T06:27:12;11.98;;;6.60;;
76423;SDS011;65257;52.104;4.268;2024-02-21T06:29:40;14.10;;;6.60;;
76423;SDS011;65257;52.104;4.268;2024-02-21T06:32:05;10.98;;;6.03;;
76423;SDS011;65257;52.104;4.268;2024-02-21T06:34:31;14.90;;;6.65;;
76423;SDS011;65257;52.104;4.268;2024-02-21T06:36:57;17.48;;;7.88;;
76423;SDS011;65257;52.104;4.268;2024-02-21T06:39:22;21.23;;;7.38;;
76423;SDS011;65257;52.104;4.268;2024-02-21T06:41:48;13.27;;;6.75;;
76423;SDS011;65257;52.104;4.268;2024-02-21T06:44:15;15.10;;;6.82;;
76423;SDS011;65257;52.104;4.268;2024-02-21T06:46:41;16.25;;;9.13;;
76423;SDS011;65257;52.104;4.268;2024-02-21T06:49:09;14.25;;;7.63;;
76423;SDS011;65257;52.104;4.268;2024-02-21T06:51:41;18.60;;;7.97;;
76423;SDS011;65257;52.104;4.268;2024-02-21T06:54:09;15.43;;;7.38;;
76423;SDS011;65257;52.104;4.268;2024-02-21T06:56:35;15.18;;;8.18;;
76423;SDS011;65257;52.104;4.268;2024-02-21T06:59:01;15.25;;;8.48;;
76423;SDS011;65257;52.104;4.268;2024-02-21T07:01:28;16.05;;;7.90;;
76423;SDS011;65257;52.104;4.268;2024-02-21T07:03:54;15.85;;;7.07;;
76423;SDS011;65257;52.104;4.268;2024-02-21T07:06:19;15.70;;;8.30;;
76423;SDS011;65257;52.104;4.268;2024-02-21T07:08:44;13.35;;;8.30;;
76423;SDS011;65257;52.104;4.268;2024-02-21T07:11:10;15.13;;;8.48;;
76423;SDS011;65257;52.104;4.268;2024-02-21T07:13:36;17.67;;;9.00;;
76423;SDS011;65257;52.104;4.268;2024-02-21T07:16:01;19.58;;;7.40;;
76423;SDS011;65257;52.104;4.268;2024-02-21T07:18:27;20.50;;;9.68;;
76423;SDS011;65257;52.104;4.268;2024-02-21T07:20:52;18.75;;;8.77;;
76423;SDS011;65257;52.104;4.268;2024-02-21T07:23:18;20.25;;;9.02;;
76423;SDS011;65257;52.104;4.268;2024-02-21T07:25:44;22.98;;;9.95;;
76423;SDS011;65257;52.104;4.268;2024-02-21T07:28:09;21.13;;;9.27;;
76423;SDS011;65257;52.104;4.268;2024-02-21T07:30:35;21.38;;;10.15;;
76423;SDS011;65257;52.104;4.268;2024-02-21T07:33:00;22.83;;;11.95;;
76423;SDS011;65257;52.104;4.268;2024-02-21T07:35:26;22.45;;;11.13;;
76423;SDS011;65257;52.104;4.268;2024-02-21T07:37:51;22.35;;;10.82;;
76423;SDS011;65257;52.104;4.268;2024-02-21T07:40:17;18.15;;;9.90;;
76423;SDS011;65257;52.104;4.268;2024-02-21T07:42:42;17.23;;;9.38;;
76423;SDS011;65257;52.104;4.268;2024-02-21T07:45:08;14.88;;;9.15;;
76423;SDS011;65257;52.104;4.268;2024-02-21T07:47:35;19.77;;;11.70;;
76423;SDS011;65257;52.104;4.268;2024-02-21T07:50:01;17.67;;;9.48;;
76423;SDS011;65257;52.104;4.268;2024-02-21T07:52:27;20.90;;;11.40;;
76423;SDS011;65257;52.104;4.268;2024-02-21T07:54:53;20.38;;;10.13;;
76423;SDS011;65257;52.104;4.268;2024-02-21T07:57:18;19.30;;;10.10;;
76423;SDS011;65257;52.104;4.268;2024-02-21T07:59:44;23.88;;;10.85;;
76423;SDS011;65257;52.104;4.268;2024-02-21T08:02:16;20.58;;;10.23;;
76423;SDS011;65257;52.104;4.268;2024-02-21T08:04:41;21.70;;;10.93;;
76423;SDS011;65257;52.104;4.268;2024-02-21T08:07:07;18.38;;;9.73;;
76423;SDS011;65257;52.104;4.268;2024-02-21T08:09:32;18.80;;;10.55;;
76423;SDS011;65257;52.104;4.268;2024-02-21T08:11:58;15.52;;;9.25;;
76423;SDS011;65257;52.104;4.268;2024-02-21T08:14:23;15.43;;;8.38;;
76423;SDS011;65257;52.104;4.268;2024-02-21T08:16:50;14.07;;;8.38;;
76423;SDS011;65257;52.104;4.268;2024-02-21T08:19:18;18.27;;;9.25;;
76423;SDS011;65257;52.104;4.268;2024-02-21T08:21:44;18.35;;;9.02;;
76423;SDS011;65257;52.104;4.268;2024-02-21T08:24:11;16.27;;;9.73;;
76423;SDS011;65257;52.104;4.268;2024-02-21T08:26:40;20.63;;;11.43;;
76423;SDS011;65257;52.104;4.268;2024-02-21T08:29:05;17.10;;;9.38;;
76423;SDS011;65257;52.104;4.268;2024-02-21T08:31:31;16.30;;;9.05;;
76423;SDS011;65257;52.104;4.268;2024-02-21T08:34:02;18.13;;;9.68;;
76423;SDS011;65257;52.104;4.268;2024-02-21T08:36:29;15.60;;;9.82;;
76423;SDS011;65257;52.104;4.268;2024-02-21T08:38:55;17.10;;;9.90;;
76423;SDS011;65257;52.104;4.268;2024-02-21T08:41:21;11.68;;;6.82;;
76423;SDS011;65257;52.104;4.268;2024-02-21T08:46:14;11.90;;;7.00;;
76423;SDS011;65257;52.104;4.268;2024-02-21T08:48:40;16.88;;;9.38;;
76423;SDS011;65257;52.104;4.268;2024-02-21T08:51:06;12.43;;;8.05;;
76423;SDS011;65257;52.104;4.268;2024-02-21T08:53:31;16.63;;;9.85;;
76423;SDS011;65257;52.104;4.268;2024-02-21T08:55:56;18.55;;;10.27;;
76423;SDS011;65257;52.104;4.268;2024-02-21T08:58:22;17.45;;;9.57;;
76423;SDS011;65257;52.104;4.268;2024-02-21T09:00:49;16.27;;;8.90;;
76423;SDS011;65257;52.104;4.268;2024-02-21T09:03:16;14.40;;;8.77;;
76423;SDS011;65257;52.104;4.268;2024-02-21T09:05:42;19.30;;;8.90;;
76423;SDS011;65257;52.104;4.268;2024-02-21T09:08:08;17.48;;;8.82;;
76423;SDS011;65257;52.104;4.268;2024-02-21T09:10:33;16.85;;;9.05;;
76423;SDS011;65257;52.104;4.268;2024-02-21T09:12:58;10.38;;;7.32;;
76423;SDS011;65257;52.104;4.268;2024-02-21T09:15:24;15.88;;;9.13;;
76423;SDS011;65257;52.104;4.268;2024-02-21T09:17:50;19.13;;;8.68;;
76423;SDS011;65257;52.104;4.268;2024-02-21T09:20:15;13.68;;;8.32;;
76423;SDS011;65257;52.104;4.268;2024-02-21T09:22:41;17.55;;;9.02;;
76423;SDS011;65257;52.104;4.268;2024-02-21T09:25:06;13.27;;;8.52;;
76423;SDS011;65257;52.104;4.268;2024-02-21T09:27:32;13.45;;;7.18;;
76423;SDS011;65257;52.104;4.268;2024-02-21T09:29:58;15.25;;;7.50;;
76423;SDS011;65257;52.104;4.268;2024-02-21T09:32:23;13.45;;;6.80;;
76423;SDS011;65257;52.104;4.268;2024-02-21T09:34:48;12.90;;;6.45;;
76423;SDS011;65257;52.104;4.268;2024-02-21T09:37:14;14.30;;;7.70;;
76423;SDS011;65257;52.104;4.268;2024-02-21T09:39:39;13.80;;;8.60;;
76423;SDS011;65257;52.104;4.268;2024-02-21T09:42:07;13.00;;;7.45;;
76423;SDS011;65257;52.104;4.268;2024-02-21T09:44:36;12.68;;;7.75;;
76423;SDS011;65257;52.104;4.268;2024-02-21T09:47:19;14.38;;;8.20;;
76423;SDS011;65257;52.104;4.268;2024-02-21T09:49:49;15.45;;;8.43;;
76423;SDS011;65257;52.104;4.268;2024-02-21T09:52:17;16.45;;;6.88;;
76423;SDS011;65257;52.104;4.268;2024-02-21T09:54:45;16.52;;;9.40;;
76423;SDS011;65257;52.104;4.268;2024-02-21T09:57:13;15.32;;;8.05;;
76423;SDS011;65257;52.104;4.268;2024-02-21T09:59:40;14.82;;;8.75;;
76423;SDS011;65257;52.104;4.268;2024-02-21T10:02:08;11.65;;;7.95;;
76423;SDS011;65257;52.104;4.268;2024-02-21T10:04:34;12.75;;;7.93;;
76423;SDS011;65257;52.104;4.268;2024-02-21T10:06:59;17.55;;;10.13;;
76423;SDS011;65257;52.104;4.268;2024-02-21T10:09:25;13.80;;;9.00;;
76423;SDS011;65257;52.104;4.268;2024-02-21T10:11:55;15.77;;;10.00;;
76423;SDS011;65257;52.104;4.268;2024-02-21T10:14:21;26.42;;;10.13;;
76423;SDS011;65257;52.104;4.268;2024-02-21T10:16:47;14.55;;;9.38;;
76423;SDS011;65257;52.104;4.268;2024-02-21T10:19:20;13.20;;;8.35;;
76423;SDS011;65257;52.104;4.268;2024-02-21T10:24:28;14.27;;;10.27;;
76423;SDS011;65257;52.104;4.268;2024-02-21T10:27:07;16.67;;;10.75;;
76423;SDS011;65257;52.104;4.268;2024-02-21T10:29:37;16.83;;;9.98;;
76423;SDS011;65257;52.104;4.268;2024-02-21T10:34:36;17.25;;;11.18;;
76423;SDS011;65257;52.104;4.268;2024-02-21T10:37:03;16.73;;;10.63;;
76423;SDS011;65257;52.104;4.268;2024-02-21T10:39:32;15.27;;;10.15;;
76423;SDS011;65257;52.104;4.268;2024-02-21T10:42:02;16.80;;;11.10;;
76423;SDS011;65257;52.104;4.268;2024-02-21T10:44:31;12.68;;;7.65;;
76423;SDS011;65257;52.104;4.268;2024-02-21T10:46:58;13.48;;;8.98;;
76423;SDS011;65257;52.104;4.268;2024-02-21T10:49:25;18.88;;;11.10;;
76423;SDS011;65257;52.104;4.268;2024-02-21T10:51:55;19.73;;;11.65;;
76423;SDS011;65257;52.104;4.268;2024-02-21T10:54:45;15.57;;;10.38;;
76423;SDS011;65257;52.104;4.268;2024-02-21T10:57:18;19.05;;;10.40;;
76423;SDS011;65257;52.104;4.268;2024-02-21T10:59:47;12.10;;;9.02;;
76423;SDS011;65257;52.104;4.268;2024-02-21T11:02:14;16.00;;;9.90;;
76423;SDS011;65257;52.104;4.268;2024-02-21T11:04:40;12.80;;;9.32;;
76423;SDS011;65257;52.104;4.268;2024-02-21T11:07:06;12.98;;;8.68;;
76423;SDS011;65257;52.104;4.268;2024-02-21T11:09:33;16.35;;;9.23;;
76423;SDS011;65257;52.104;4.268;2024-02-21T11:12:01;16.63;;;9.93;;
76423;SDS011;65257;52.104;4.268;2024-02-21T11:14:28;18.10;;;10.10;;
76423;SDS011;65257;52.104;4.268;2024-02-21T11:16:57;12.82;;;8.70;;
76423;SDS011;65257;52.104;4.268;2024-02-21T11:19:26;15.55;;;10.10;;
76423;SDS011;65257;52.104;4.268;2024-02-21T11:21:53;17.20;;;8.88;;
76423;SDS011;65257;52.104;4.268;2024-02-21T11:24:28;12.48;;;8.25;;
76423;SDS011;65257;52.104;4.268;2024-02-21T11:26:55;15.73;;;9.52;;
76423;SDS011;65257;52.104;4.268;2024-02-21T11:29:24;12.60;;;6.95;;
76423;SDS011;65257;52.104;4.268;2024-02-21T11:31:50;13.07;;;8.43;;
76423;SDS011;65257;52.104;4.268;2024-02-21T11:34:19;11.75;;;6.93;;
76423;SDS011;65257;52.104;4.268;2024-02-21T11:36:51;14.65;;;8.13;;
76423;SDS011;65257;52.104;4.268;2024-02-21T11:39:18;14.43;;;8.10;;
76423;SDS011;65257;52.104;4.268;2024-02-21T11:41:59;12.90;;;8.45;;
76423;SDS011;65257;52.104;4.268;2024-02-21T11:44:26;17.33;;;9.18;;
76423;SDS011;65257;52.104;4.268;2024-02-21T11:46:51;12.43;;;6.85;;
76423;SDS011;65257;52.104;4.268;2024-02-21T11:49:16;14.40;;;8.93;;
76423;SDS011;65257;52.104;4.268;2024-02-21T11:51:42;15.52;;;9.13;;
76423;SDS011;65257;52.104;4.268;2024-02-21T11:54:07;14.82;;;8.85;;
76423;SDS011;65257;52.104;4.268;2024-02-21T11:56:34;10.90;;;7.60;;
76423;SDS011;65257;52.104;4.268;2024-02-21T11:59:00;13.85;;;7.93;;
76423;SDS011;65257;52.104;4.268;2024-02-21T12:01:25;15.27;;;8.00;;
76423;SDS011;65257;52.104;4.268;2024-02-21T12:03:50;13.00;;;7.85;;
76423;SDS011;65257;52.104;4.268;2024-02-21T12:06:16;13.30;;;6.90;;
76423;SDS011;65257;52.104;4.268;2024-02-21T12:08:46;11.05;;;7.57;;
76423;SDS011;65257;52.104;4.268;2024-02-21T12:11:19;12.43;;;7.63;;
76423;SDS011;65257;52.104;4.268;2024-02-21T12:13:57;11.30;;;6.10;;
76423;SDS011;65257;52.104;4.268;2024-02-21T12:16:25;10.32;;;6.78;;
76423;SDS011;65257;52.104;4.268;2024-02-21T12:18:52;10.18;;;6.57;;
76423;SDS011;65257;52.104;4.268;2024-02-21T12:21:25;10.60;;;6.53;;
76423;SDS011;65257;52.104;4.268;2024-02-21T12:23:58;9.32;;;5.90;;
76423;SDS011;65257;52.104;4.268;2024-02-21T12:26:24;10.10;;;6.50;;
76423;SDS011;65257;52.104;4.268;2024-02-21T12:28:50;12.27;;;7.75;;
76423;SDS011;65257;52.104;4.268;2024-02-21T12:31:16;15.50;;;7.38;;
76423;SDS011;65257;52.104;4.268;2024-02-21T12:33:44;10.43;;;6.70;;
76423;SDS011;65257;52.104;4.268;2024-02-21T12:36:10;9.23;;;6.57;;
76423;SDS011;65257;52.104;4.268;2024-02-21T12:38:36;8.05;;;5.60;;
76423;SDS011;65257;52.104;4.268;2024-02-21T12:41:01;8.55;;;5.93;;
76423;SDS011;65257;52.104;4.268;2024-02-21T12:43:27;9.27;;;5.60;;
76423;SDS011;65257;52.104;4.268;2024-02-21T12:45:52;9.63;;;5.60;;
76423;SDS011;65257;52.104;4.268;2024-02-21T12:48:17;12.00;;;6.50;;
76423;SDS011;65257;52.104;4.268;2024-02-21T12:50:49;9.77;;;5.68;;
76423;SDS011;65257;52.104;4.268;2024-02-21T12:53:21;10.98;;;5.93;;
76423;SDS011;65257;52.104;4.268;2024-02-21T12:55:47;10.25;;;6.47;;
76423;SDS011;65257;52.104;4.268;2024-02-21T12:58:13;9.65;;;6.40;;
76423;SDS011;65257;52.104;4.268;2024-02-21T13:00:39;7.78;;;5.00;;
76423;SDS011;65257;52.104;4.268;2024-02-21T13:03:05;8.73;;;6.38;;
76423;SDS011;65257;52.104;4.268;2024-02-21T13:05:31;9.15;;;6.15;;
76423;SDS011;65257;52.104;4.268;2024-02-21T13:07:57;9.18;;;5.97;;
76423;SDS011;65257;52.104;4.268;2024-02-21T13:10:23;10.30;;;6.63;;
76423;SDS011;65257;52.104;4.268;2024-02-21T13:12:48;10.25;;;6.18;;
76423;SDS011;65257;52.104;4.268;2024-02-21T13:15:14;10.52;;;6.35;;
76423;SDS011;65257;52.104;4.268;2024-02-21T13:17:41;13.80;;;7.20;;
76423;SDS011;65257;52.104;4.268;2024-02-21T13:20:06;9.73;;;5.40;;
76423;SDS011;65257;52.104;4.268;2024-02-21T13:22:33;11.80;;;5.60;;
76423;SDS011;65257;52.104;4.268;2024-02-21T13:24:59;11.13;;;6.10;;
76423;SDS011;65257;52.104;4.268;2024-02-21T13:27:24;9.23;;;5.10;;
76423;SDS011;65257;52.104;4.268;2024-02-21T13:29:50;8.20;;;6.03;;
76423;SDS011;65257;52.104;4.268;2024-02-21T13:32:15;9.88;;;7.07;;
76423;SDS011;65257;52.104;4.268;2024-02-21T13:34:41;8.10;;;5.18;;
76423;SDS011;65257;52.104;4.268;2024-02-21T13:37:07;10.65;;;6.20;;
76423;SDS011;65257;52.104;4.268;2024-02-21T13:39:34;11.20;;;6.60;;
76423;SDS011;65257;52.104;4.268;2024-02-21T13:42:03;10.88;;;6.13;;
76423;SDS011;65257;52.104;4.268;2024-02-21T13:44:30;9.10;;;6.13;;
76423;SDS011;65257;52.104;4.268;2024-02-21T13:46:57;11.82;;;7.20;;
76423;SDS011;65257;52.104;4.268;2024-02-21T13:49:22;11.07;;;7.53;;
76423;SDS011;65257;52.104;4.268;2024-02-21T13:51:47;12.32;;;7.55;;
76423;SDS011;65257;52.104;4.268;2024-02-21T13:54:13;9.75;;;7.15;;
76423;SDS011;65257;52.104;4.268;2024-02-21T13:56:42;13.68;;;8.07;;
76423;SDS011;65257;52.104;4.268;2024-02-21T13:59:08;13.50;;;7.90;;
76423;SDS011;65257;52.104;4.268;2024-02-21T14:01:33;13.10;;;8.82;;
76423;SDS011;65257;52.104;4.268;2024-02-21T14:03:59;12.93;;;9.68;;
76423;SDS011;65257;52.104;4.268;2024-02-21T14:06:24;17.80;;;11.48;;
76423;SDS011;65257;52.104;4.268;2024-02-21T14:08:49;20.52;;;13.35;;
76423;SDS011;65257;52.104;4.268;2024-02-21T14:11:15;15.18;;;11.60;;
76423;SDS011;65257;52.104;4.268;2024-02-21T14:13:40;15.93;;;11.27;;
76423;SDS011;65257;52.104;4.268;2024-02-21T14:16:09;24.23;;;12.60;;
76423;SDS011;65257;52.104;4.268;2024-02-21T14:18:37;15.95;;;11.07;;
76423;SDS011;65257;52.104;4.268;2024-02-21T14:21:03;19.10;;;12.50;;
76423;SDS011;65257;52.104;4.268;2024-02-21T14:23:29;16.80;;;10.18;;
76423;SDS011;65257;52.104;4.268;2024-02-21T14:25:54;20.65;;;11.80;;
76423;SDS011;65257;52.104;4.268;2024-02-21T14:28:19;14.90;;;10.45;;
76423;SDS011;65257;52.104;4.268;2024-02-21T14:30:45;17.52;;;11.43;;
76423;SDS011;65257;52.104;4.268;2024-02-21T14:33:12;20.35;;;11.80;;
76423;SDS011;65257;52.104;4.268;2024-02-21T14:35:38;19.67;;;12.18;;